FWI2235 MKJS-KMIA
Flight info
| Callsign | FWI2235 |
|---|---|
| Flight time | N/A |
| Altitude | 33000 |
| Route | ADSEL3 ALTIB UM779 ZEUSS VIICE2 |
| Aircraft | A359/H-SDE2E3GHIJ3J4J5LM1ORWXY/LB1D1 |
Departure
| Time | 2026-05-08 21:03 |
|---|---|
| Airport | Sangster International Airport (MKJS) |
Arrival
| Time | N/A |
|---|---|
| Airport | Miami International Airport (KMIA) |
| Time | Latitude | Longitude | Altitude | Speed | Heading |
|---|---|---|---|---|---|
| 2026-05-08 20:49 | 18.49855 | -77.91947 | 18 ft | 0 kts | 155° |
| 2026-05-08 20:56 | 18.49869 | -77.91953 | 20 ft | 2 kts | 159° |
| 2026-05-08 20:56 | 18.49885 | -77.91959 | 18 ft | 2 kts | 165° |
| 2026-05-08 20:56 | 18.49901 | -77.91962 | 20 ft | 2 kts | 176° |
| 2026-05-08 20:57 | 18.49917 | -77.91961 | 19 ft | 2 kts | 199° |
| 2026-05-08 20:57 | 18.49930 | -77.91953 | 20 ft | 2 kts | 231° |
| 2026-05-08 20:57 | 18.49937 | -77.91942 | 21 ft | 1 kts | 244° |
| 2026-05-08 20:57 | 18.49938 | -77.91940 | 21 ft | 0 kts | 245° |
| 2026-05-08 21:00 | 18.49913 | -77.91976 | 19 ft | 11 kts | 234° |
| 2026-05-08 21:00 | 18.49876 | -77.92048 | 19 ft | 13 kts | 243° |
| 2026-05-08 21:00 | 18.49839 | -77.92133 | 19 ft | 13 kts | 246° |
| 2026-05-08 21:00 | 18.49801 | -77.92221 | 19 ft | 14 kts | 246° |
| 2026-05-08 21:01 | 18.49761 | -77.92315 | 18 ft | 14 kts | 245° |
| 2026-05-08 21:01 | 18.49770 | -77.92405 | 18 ft | 13 kts | 319° |
| 2026-05-08 21:01 | 18.49851 | -77.92447 | 17 ft | 13 kts | 347° |
| 2026-05-08 21:01 | 18.49896 | -77.92414 | 18 ft | 0 kts | 64° |
| 2026-05-08 21:02 | 18.49899 | -77.92407 | 19 ft | 5 kts | 64° |
| 2026-05-08 21:02 | 18.49970 | -77.92249 | 21 ft | 57 kts | 66° |
| 2026-05-08 21:02 | 18.50241 | -77.91624 | 22 ft | 129 kts | 65° |
| 2026-05-08 21:02 | 18.50695 | -77.90581 | 217 ft | 173 kts | 66° |
| 2026-05-08 21:03 | 18.51285 | -77.89372 | 722 ft | 202 kts | 56° |
| 2026-05-08 21:03 | 18.52544 | -77.88569 | 1298 ft | 226 kts | 8° |
| 2026-05-08 21:03 | 18.54080 | -77.88906 | 1742 ft | 237 kts | 330° |
| 2026-05-08 21:03 | 18.55196 | -77.90238 | 1958 ft | 256 kts | 293° |
| 2026-05-08 21:04 | 18.55363 | -77.92122 | 2263 ft | 268 kts | 258° |
| 2026-05-08 21:04 | 18.54670 | -77.93956 | 2748 ft | 271 kts | 245° |
| 2026-05-08 21:04 | 18.53948 | -77.95798 | 3342 ft | 271 kts | 250° |